Time;durP1;ratioP1;P1;durP2;ratioP2;P2;SDS_P1;SDS_P2;PMS_P1;PMS_P2;Temp;Humidity;BMP_temperature;BMP_pressure;BME280_temperature;BME280_humidity;BME280_pressure;Samples;Min_cycle;Max_cycle;Signal;HPM_P1;HPM_P2
2022/01/03 00:01:21;;;;;;;48.10;26.63;;;;;;;3.82;nan;-23922.97;5095031;28;20180;-67
2022/01/03 00:03:47;;;;;;;45.13;25.37;;;;;;;4.13;nan;-23931.78;5094998;28;20193;-67
2022/01/03 00:06:14;;;;;;;43.30;25.67;;;;;;;3.88;nan;-23924.66;5094561;28;20204;-67
2022/01/03 00:08:43;;;;;;;48.17;25.80;;;;;;;3.75;nan;-23920.97;5094527;28;20193;-67
2022/01/03 00:11:14;;;;;;;38.33;22.20;;;;;;;4.35;nan;-23937.91;5093421;28;20264;-67
2022/01/03 00:13:41;;;;;;;38.63;21.43;;;;;;;4.35;nan;-23937.91;5094554;28;20216;-66
2022/01/03 00:16:07;;;;;;;35.20;21.50;;;;;;;4.09;nan;-23930.50;5094627;28;20172;-68
2022/01/03 00:18:32;;;;;;;42.10;21.80;;;;;;;3.84;nan;-23923.53;5094452;28;20181;-67
2022/01/03 00:21:00;;;;;;;39.73;23.33;;;;;;;3.93;nan;-23926.09;5093876;28;20343;-67
2022/01/03 00:23:28;;;;;;;45.87;24.93;;;;;;;3.80;nan;-23922.38;5075889;28;20209;-67
2022/01/03 00:26:03;;;;;;;41.90;24.70;;;;;;;4.17;nan;-23932.94;5094295;28;20184;-66
2022/01/03 00:29:11;;;;;;;43.77;23.70;;;;;;;4.11;nan;-23931.22;5094361;28;20256;-67
2022/01/03 00:31:39;;;;;;;40.27;22.93;;;;;;;4.21;nan;-23934.06;5011919;28;20339;-68
2022/01/03 00:34:06;;;;;;;42.20;23.50;;;;;;;4.13;nan;-23931.78;5078017;28;20507;-68
2022/01/03 00:36:33;;;;;;;41.77;23.17;;;;;;;4.17;nan;-23932.78;5093857;28;20702;-67
2022/01/03 00:38:58;;;;;;;47.73;25.97;;;;;;;4.03;nan;-23928.78;5093978;28;20170;-67
2022/01/03 00:41:24;;;;;;;47.87;26.60;;;;;;;4.03;nan;-23928.78;5093754;28;20242;-66
2022/01/03 00:43:52;;;;;;;41.10;24.07;;;;;;;3.40;nan;-23911.28;5093549;28;20266;-67
2022/01/03 00:46:18;;;;;;;47.17;25.13;;;;;;;3.90;nan;-23925.22;5075467;28;20185;-67
2022/01/03 00:48:44;;;;;;;41.80;24.70;;;;;;;3.52;nan;-23914.69;5093805;28;20205;-67
2022/01/03 00:51:11;;;;;;;43.13;24.67;;;;;;;3.81;nan;-23922.66;5093249;28;20235;-68
2022/01/03 00:53:36;;;;;;;100.53;32.63;;;;;;;3.88;nan;-23924.66;5093500;28;20185;-66
2022/01/03 00:56:12;;;;;;;201.47;37.27;;;;;;;3.87;nan;-23924.38;5093572;28;20643;-68
2022/01/03 00:59:01;;;;;;;167.13;37.70;;;;;;;4.03;nan;-23928.94;5091949;28;20184;-68
2022/01/03 01:01:27;;;;;;;215.63;38.70;;;;;;;3.66;nan;-23918.41;5091673;28;20177;-68
2022/01/03 01:03:55;;;;;;;131.33;36.47;;;;;;;3.72;nan;-23920.09;5093383;28;20231;-68
2022/01/03 01:06:22;;;;;;;350.77;45.10;;;;;;;3.65;nan;-23918.25;5092855;28;20197;-66
2022/01/03 01:08:54;;;;;;;279.30;42.60;;;;;;;4.12;nan;-23931.34;5093214;28;20196;-68
2022/01/03 01:11:24;;;;;;;232.17;41.13;;;;;;;4.34;nan;-23937.78;5093217;28;20165;-68
2022/01/03 01:13:50;;;;;;;243.63;40.73;;;;;;;3.84;nan;-23923.53;5093335;28;20667;-68
2022/01/03 01:16:16;;;;;;;167.33;41.10;;;;;;;3.86;nan;-23924.09;5093098;28;20173;-66
2022/01/03 01:18:44;;;;;;;155.67;41.37;;;;;;;4.50;nan;-23942.19;5093288;28;20234;-67
2022/01/03 01:21:09;;;;;;;143.37;38.53;;;;;;;4.55;nan;-23943.47;5093229;28;20694;-67
2022/01/03 01:23:37;;;;;;;113.70;37.27;;;;;;;4.53;nan;-23942.91;5091543;28;20292;-67
2022/01/03 01:28:47;;;;;;;81.63;30.97;;;;;;;4.12;nan;-23931.50;5092504;28;20611;-67
2022/01/03 01:31:18;;;;;;;113.80;30.53;;;;;;;4.49;nan;-23941.75;5091903;28;20246;-67
2022/01/03 01:33:45;;;;;;;81.13;29.37;;;;;;;4.06;nan;-23929.78;5092447;28;20628;-67
2022/01/03 01:36:12;;;;;;;88.40;27.87;;;;;;;4.27;nan;-23935.78;5092346;28;20185;-67
2022/01/03 01:38:40;;;;;;;51.90;24.87;;;;;;;4.20;nan;-23933.63;5092266;28;20166;-67
2022/01/03 01:41:07;;;;;;;47.37;23.77;;;;;;;4.35;nan;-23937.91;5092293;28;20230;-67
2022/01/03 01:43:42;;;;;;;44.67;23.30;;;;;;;4.48;nan;-23941.63;5092122;28;20197;-68
2022/01/03 01:46:11;;;;;;;36.53;21.97;;;;;;;4.04;nan;-23929.09;5092073;28;20172;-67
2022/01/03 01:48:39;;;;;;;41.73;23.13;;;;;;;4.24;nan;-23934.91;5068551;28;20596;-67
2022/01/03 01:51:07;;;;;;;62.80;26.47;;;;;;;4.51;nan;-23942.31;5032123;28;20636;-67
2022/01/03 01:53:45;;;;;;;44.70;23.53;;;;;;;4.63;nan;-23945.75;5030996;28;20171;-67
2022/01/03 01:56:15;;;;;;;43.07;22.93;;;;;;;4.73;nan;-23948.72;5030293;28;20255;-68
2022/01/03 01:59:12;;;;;;;41.30;23.47;;;;;;;4.79;nan;-23950.28;5012549;28;20179;-68
2022/01/03 02:01:46;;;;;;;53.13;26.57;;;;;;;4.42;nan;-23940.03;5033843;28;20831;-67
2022/01/03 02:04:30;;;;;;;53.13;25.40;;;;;;;4.97;nan;-23955.28;5049835;28;20291;-68
2022/01/03 02:06:57;;;;;;;60.20;25.03;;;;;;;4.58;nan;-23944.31;5050131;28;20186;-68
2022/01/03 02:09:42;;;;;;;56.87;26.10;;;;;;;4.84;nan;-23951.84;5049745;28;20202;-68
2022/01/03 02:12:14;;;;;;;54.47;25.60;;;;;;;4.96;nan;-23955.00;5050122;28;20188;-67
2022/01/03 02:14:39;;;;;;;56.87;25.27;;;;;;;4.95;nan;-23954.84;5050220;28;20830;-68
2022/01/03 02:17:05;;;;;;;83.17;26.37;;;;;;;4.68;nan;-23947.31;5050133;28;20177;-67
2022/01/03 02:19:37;;;;;;;56.83;26.03;;;;;;;4.73;nan;-23948.72;5049881;28;20254;-67
2022/01/03 02:22:03;;;;;;;102.73;28.43;;;;;;;4.82;nan;-23951.28;5043744;28;20185;-68
2022/01/03 02:24:29;;;;;;;102.47;27.97;;;;;;;4.55;nan;-23943.59;5051085;28;20206;-68
2022/01/03 02:26:54;;;;;;;73.60;27.60;;;;;;;4.73;nan;-23948.59;5051270;28;20553;-68
2022/01/03 02:29:20;;;;;;;55.43;27.20;;;;;;;4.52;nan;-23942.59;5051156;28;20617;-68
2022/01/03 02:31:45;;;;;;;63.07;29.00;;;;;;;4.59;nan;-23944.75;5032803;28;20255;-68
2022/01/03 02:34:11;;;;;;;62.30;27.73;;;;;;;4.62;nan;-23945.47;5032884;28;20273;-68
2022/01/03 02:36:37;;;;;;;67.37;27.37;;;;;;;4.61;nan;-23945.31;5051236;28;20182;-68
2022/01/03 02:39:03;;;;;;;100.50;28.37;;;;;;;4.88;nan;-23953.00;5051032;28;20167;-69
2022/01/03 02:41:28;;;;;;;171.70;31.57;;;;;;;4.66;nan;-23946.75;5051072;28;20252;-68
2022/01/03 02:43:54;;;;;;;133.57;30.03;;;;;;;4.45;nan;-23940.75;5051030;28;20281;-69
2022/01/03 02:46:19;;;;;;;95.97;29.87;;;;;;;4.18;nan;-23933.06;5050484;28;20174;-69
2022/01/03 02:48:45;;;;;;;74.00;30.67;;;;;;;4.57;nan;-23944.19;5050716;28;20170;-69
2022/01/03 02:51:12;;;;;;;207.27;34.47;;;;;;;4.61;nan;-23945.16;5012089;28;1109946;-68
2022/01/03 02:53:38;;;;;;;145.27;32.57;;;;;;;4.10;nan;-23930.94;5051563;28;20186;-67
2022/01/03 02:56:04;;;;;;;117.83;32.97;;;;;;;4.59;nan;-23944.59;5051728;28;20258;-69
2022/01/03 02:58:31;;;;;;;96.20;33.60;;;;;;;4.61;nan;-23945.16;5051870;28;20265;-68
2022/01/03 03:00:56;;;;;;;131.97;34.07;;;;;;;4.98;nan;-23955.56;5052216;28;20175;-67
2022/01/03 03:03:23;;;;;;;105.27;33.07;;;;;;;4.90;nan;-23953.44;5054836;28;20213;-67
2022/01/03 03:05:50;;;;;;;102.43;29.97;;;;;;;5.09;nan;-23958.81;5055818;28;20225;-67
2022/01/03 03:08:16;;;;;;;82.40;28.40;;;;;;;4.68;nan;-23947.31;5055483;28;20181;-66
2022/01/03 03:10:42;;;;;;;79.33;28.77;;;;;;;5.03;nan;-23956.97;5037371;28;20182;-66
2022/01/03 03:13:08;;;;;;;110.37;29.67;;;;;;;4.58;nan;-23944.47;5055188;28;20246;-67
2022/01/03 03:15:34;;;;;;;84.30;28.83;;;;;;;4.92;nan;-23954.00;5055343;28;20175;-67
2022/01/03 03:17:59;;;;;;;97.97;28.43;;;;;;;4.33;nan;-23937.47;5055241;28;20181;-67
2022/01/03 03:20:28;;;;;;;93.07;28.60;;;;;;;4.62;nan;-23945.47;5055484;28;20166;-65
2022/01/03 03:22:55;;;;;;;117.57;29.13;;;;;;;4.01;nan;-23928.38;5054817;28;20222;-67
2022/01/03 03:25:31;;;;;;;93.63;29.93;;;;;;;3.96;nan;-23926.94;5055098;28;20686;-68
2022/01/03 03:28:00;;;;;;;91.60;28.30;;;;;;;3.82;nan;-23922.97;5054802;28;20170;-67
2022/01/03 03:30:42;;;;;;;86.20;28.87;;;;;;;4.23;nan;-23934.50;5054904;28;20626;-66
2022/01/03 03:33:13;;;;;;;128.60;30.73;;;;;;;3.89;nan;-23924.94;5054987;28;20556;-67
2022/01/03 03:35:40;;;;;;;125.70;31.63;;;;;;;4.67;nan;-23947.03;5055220;28;20202;-68
2022/01/03 03:38:05;;;;;;;97.63;28.63;;;;;;;4.42;nan;-23940.03;5054773;28;20623;-66
2022/01/03 03:40:31;;;;;;;83.93;28.13;;;;;;;3.95;nan;-23926.81;5054719;28;20246;-67
2022/01/03 03:42:57;;;;;;;78.53;27.00;;;;;;;3.79;nan;-23922.09;5054880;28;20286;-67
2022/01/03 03:45:23;;;;;;;74.10;25.33;;;;;;;4.18;nan;-23933.22;5054587;28;20661;-66
2022/01/03 03:47:51;;;;;;;67.23;24.57;;;;;;;3.97;nan;-23927.38;5054708;28;20191;-68
2022/01/03 03:50:17;;;;;;;51.03;23.60;;;;;;;3.52;nan;-23914.53;5036154;28;20713;-67
2022/01/03 03:52:43;;;;;;;75.43;22.87;;;;;;;3.58;nan;-23916.25;5036542;28;20179;-67
2022/01/03 03:55:10;;;;;;;50.83;23.03;;;;;;;3.37;nan;-23910.41;5054112;28;20248;-67
2022/01/03 03:57:36;;;;;;;80.67;22.73;;;;;;;3.67;nan;-23918.69;5054614;28;20224;-67
2022/01/03 04:00:04;;;;;;;107.00;23.97;;;;;;;3.55;nan;-23915.53;5054500;28;20155;-68
2022/01/03 04:02:30;;;;;;;129.40;23.00;;;;;;;3.83;nan;-23923.38;5041092;28;20662;-68
2022/01/03 04:04:57;;;;;;;109.53;23.90;;;;;;;3.99;nan;-23927.81;5048267;28;20210;-68
2022/01/03 04:07:22;;;;;;;99.73;23.63;;;;;;;3.94;nan;-23926.53;5039591;28;20178;-67
2022/01/03 04:09:48;;;;;;;134.83;25.87;;;;;;;3.42;nan;-23911.84;5044778;28;20175;-67
2022/01/03 04:12:13;;;;;;;186.87;28.67;;;;;;;3.30;nan;-23908.41;5041037;28;20215;-68
2022/01/03 04:14:38;;;;;;;162.47;27.20;;;;;;;3.16;nan;-23904.28;5043095;28;20266;-68
2022/01/03 04:17:04;;;;;;;172.00;28.80;;;;;;;3.01;nan;-23900.28;5039404;28;20186;-68
2022/01/03 04:19:29;;;;;;;189.93;32.23;;;;;;;3.31;nan;-23908.56;5040088;28;20659;-67
2022/01/03 04:21:55;;;;;;;118.43;29.63;;;;;;;3.13;nan;-23903.56;5039303;28;20578;-68
2022/01/03 04:24:20;;;;;;;167.23;31.93;;;;;;;3.43;nan;-23911.97;5040549;28;20207;-67
2022/01/03 04:26:46;;;;;;;201.03;35.80;;;;;;;3.48;nan;-23913.41;5044568;28;20183;-66
2022/01/03 04:29:12;;;;;;;127.60;31.50;;;;;;;3.21;nan;-23905.72;5040747;28;20182;-67
2022/01/03 04:31:38;;;;;;;146.53;32.43;;;;;;;3.05;nan;-23901.28;5044308;28;20182;-67
2022/01/03 04:34:03;;;;;;;129.13;32.83;;;;;;;3.72;nan;-23920.09;5041607;28;20187;-67
2022/01/03 04:36:29;;;;;;;126.67;32.13;;;;;;;3.34;nan;-23909.41;5040504;28;20321;-66
2022/01/03 04:38:54;;;;;;;170.63;32.10;;;;;;;3.31;nan;-23908.72;5043779;28;20214;-66
2022/01/03 04:41:20;;;;;;;113.83;30.87;;;;;;;3.80;nan;-23922.38;5038429;28;20191;-68
2022/01/03 04:43:46;;;;;;;114.80;30.60;;;;;;;3.46;nan;-23912.97;5040427;28;20555;-67
2022/01/03 04:46:12;;;;;;;105.30;30.13;;;;;;;3.71;nan;-23919.81;5039997;28;20179;-67
2022/01/03 04:48:41;;;;;;;157.27;32.57;;;;;;;4.08;nan;-23930.38;5044086;28;20191;-67
2022/01/03 04:51:07;;;;;;;100.70;28.27;;;;;;;4.09;nan;-23930.66;5039505;28;20222;-67
2022/01/03 04:53:37;;;;;;;77.60;28.47;;;;;;;4.23;nan;-23934.50;5047809;28;20183;-67
2022/01/03 04:56:03;;;;;;;95.47;27.70;;;;;;;4.34;nan;-23937.63;5040152;28;20278;-68
2022/01/03 04:58:29;;;;;;;89.03;27.37;;;;;;;4.32;nan;-23937.19;5040190;28;20189;-68
2022/01/03 05:00:54;;;;;;;98.60;27.77;;;;;;;3.84;nan;-23923.66;5039333;28;20186;-67
2022/01/03 05:03:20;;;;;;;76.40;24.87;;;;;;;4.07;nan;-23929.94;5039969;28;20697;-67
2022/01/03 05:05:45;;;;;;;66.97;24.63;;;;;;;3.83;nan;-23923.38;5037256;28;20182;-67
2022/01/03 05:08:11;;;;;;;77.70;23.53;;;;;;;3.99;nan;-23927.81;5039122;28;20175;-67
2022/01/03 05:10:37;;;;;;;69.13;25.63;;;;;;;3.95;nan;-23926.81;5038712;28;20190;-68
2022/01/03 05:13:02;;;;;;;77.90;25.03;;;;;;;3.90;nan;-23925.22;5037406;28;20186;-68
2022/01/03 05:15:28;;;;;;;81.50;24.70;;;;;;;3.61;nan;-23917.13;5039130;28;20256;-68
2022/01/03 05:17:53;;;;;;;64.00;23.47;;;;;;;4.01;nan;-23928.38;5046108;28;20187;-68
2022/01/03 05:20:19;;;;;;;74.03;24.43;;;;;;;3.93;nan;-23926.09;5042212;28;20179;-67
2022/01/03 05:22:45;;;;;;;69.27;25.27;;;;;;;4.14;nan;-23932.06;5042000;28;20645;-67
2022/01/03 05:25:11;;;;;;;84.70;24.40;;;;;;;4.12;nan;-23931.34;5039570;28;20657;-66
2022/01/03 05:27:37;;;;;;;66.37;25.47;;;;;;;3.23;nan;-23906.28;5040304;28;20174;-68
2022/01/03 05:30:04;;;;;;;73.10;24.53;;;;;;;3.59;nan;-23916.41;5036349;28;20638;-66
2022/01/03 05:32:30;;;;;;;66.77;23.97;;;;;;;3.90;nan;-23925.22;5037871;28;20699;-67
2022/01/03 05:34:55;;;;;;;89.17;26.53;;;;;;;3.89;nan;-23924.94;5038414;28;20186;-68
2022/01/03 05:37:21;;;;;;;80.30;25.97;;;;;;;3.32;nan;-23908.84;5037959;28;20210;-68
2022/01/03 05:39:47;;;;;;;66.57;26.37;;;;;;;3.90;nan;-23925.38;5038730;28;20197;-67
2022/01/03 05:42:12;;;;;;;73.80;25.27;;;;;;;3.42;nan;-23911.84;5037399;28;20191;-68
2022/01/03 05:44:38;;;;;;;74.37;25.37;;;;;;;3.64;nan;-23917.81;5044027;28;20290;-67
2022/01/03 05:47:04;;;;;;;71.33;24.87;;;;;;;3.71;nan;-23919.81;5037561;28;20183;-67
2022/01/03 05:49:29;;;;;;;75.20;24.17;;;;;;;3.83;nan;-23923.38;5039783;28;20269;-67
2022/01/03 05:51:54;;;;;;;71.23;24.70;;;;;;;3.40;nan;-23911.28;5037215;28;20598;-66
2022/01/03 05:54:20;;;;;;;96.07;24.23;;;;;;;3.54;nan;-23915.25;5039850;28;20565;-68
2022/01/03 05:56:45;;;;;;;69.53;22.67;;;;;;;3.51;nan;-23914.25;5036886;28;20186;-67
2022/01/03 05:59:11;;;;;;;107.63;24.37;;;;;;;3.21;nan;-23905.84;5043135;28;20285;-66
2022/01/03 06:01:37;;;;;;;69.60;23.40;;;;;;;3.42;nan;-23911.84;5039779;28;20183;-67
2022/01/03 06:04:14;;;;;;;104.37;23.97;;;;;;;3.14;nan;-23903.72;5037349;28;20241;-67
2022/01/03 06:06:56;;;;;;;94.00;23.13;;;;;;;3.53;nan;-23914.84;5039670;28;20186;-67
2022/01/03 06:09:23;;;;;;;95.27;22.00;;;;;;;3.82;nan;-23922.97;5035911;28;20300;-67
2022/01/03 06:11:52;;;;;;;61.83;20.60;;;;;;;3.94;nan;-23926.38;5039298;28;20179;-66
2022/01/03 06:14:19;;;;;;;67.40;21.77;;;;;;;4.06;nan;-23929.78;5015960;28;20183;-67
2022/01/03 06:16:47;;;;;;;83.00;22.10;;;;;;;4.04;nan;-23929.09;5037396;28;20182;-68
2022/01/03 06:19:13;;;;;;;90.90;21.07;;;;;;;3.70;nan;-23919.53;5032923;28;20265;-67
2022/01/03 06:21:40;;;;;;;100.77;21.93;;;;;;;3.85;nan;-23923.81;5039168;28;20631;-70
2022/01/03 06:24:11;;;;;;;96.73;19.83;;;;;;;3.98;nan;-23927.66;5047326;28;20580;-70
2022/01/03 06:26:39;;;;;;;88.50;20.67;;;;;;;4.10;nan;-23930.78;5038987;28;20225;-69
2022/01/03 06:29:05;;;;;;;96.20;20.13;;;;;;;3.95;nan;-23926.66;5042471;28;20174;-68
2022/01/03 06:31:32;;;;;;;87.13;19.13;;;;;;;4.07;nan;-23929.94;5039289;28;20190;-69
2022/01/03 06:33:58;;;;;;;70.70;19.53;;;;;;;4.22;nan;-23934.22;5039532;28;20190;-69
2022/01/03 06:36:23;;;;;;;89.23;21.67;;;;;;;4.19;nan;-23933.50;5040957;28;20217;-70
2022/01/03 06:38:49;;;;;;;91.73;21.70;;;;;;;3.86;nan;-23924.25;5049006;28;20209;-69
2022/01/03 06:41:14;;;;;;;88.40;19.60;;;;;;;4.18;nan;-23933.22;5026418;28;20181;-67
2022/01/03 06:43:40;;;;;;;104.30;20.43;;;;;;;3.81;nan;-23922.66;5037598;28;20254;-69
2022/01/03 06:46:05;;;;;;;74.20;18.47;;;;;;;4.59;nan;-23944.59;5041708;28;20217;-69
2022/01/03 06:48:31;;;;;;;60.23;19.03;;;;;;;4.76;nan;-23949.59;5039304;28;20175;-69
2022/01/03 06:50:56;;;;;;;75.03;18.03;;;;;;;4.71;nan;-23948.16;5039601;28;20234;-68
2022/01/03 06:53:21;;;;;;;44.53;15.60;;;;;;;5.06;nan;-23957.84;5035463;28;20279;-68
2022/01/03 06:55:47;;;;;;;48.33;15.30;;;;;;;5.21;nan;-23962.25;5037270;28;20187;-68
2022/01/03 06:58:13;;;;;;;39.33;14.80;;;;;;;4.71;nan;-23948.03;5046045;28;20175;-68
2022/01/03 07:00:38;;;;;;;32.53;13.10;;;;;;;5.22;nan;-23962.53;5036670;28;20187;-67
2022/01/03 07:03:04;;;;;;;46.43;12.80;;;;;;;5.12;nan;-23959.53;5041409;28;21093;-68
2022/01/03 07:05:29;;;;;;;35.20;12.73;;;;;;;4.73;nan;-23948.72;5036774;28;20321;-69
2022/01/03 07:07:55;;;;;;;24.50;13.60;;;;;;;5.00;nan;-23956.25;5036602;28;20187;-69
2022/01/03 07:10:21;;;;;;;39.87;14.03;;;;;;;4.40;nan;-23939.34;5040574;28;20514;-68
2022/01/03 07:12:51;;;;;;;34.03;13.30;;;;;;;4.10;nan;-23930.78;5037572;28;20705;-67
2022/01/03 07:20:47;;;;;;;71.17;15.23;;;;;;;4.34;nan;-23937.63;5039455;28;20276;-70
2022/01/03 07:23:13;;;;;;;94.70;15.20;;;;;;;4.05;nan;-23929.38;5045705;28;20190;-68
2022/01/03 07:25:38;;;;;;;59.30;14.37;;;;;;;4.87;nan;-23952.56;5049471;28;20244;-68
2022/01/03 07:28:04;;;;;;;56.70;15.30;;;;;;;4.52;nan;-23942.75;5049765;28;20182;-68
2022/01/03 07:30:29;;;;;;;42.03;15.13;;;;;;;4.51;nan;-23942.31;5049855;28;20182;-68
2022/01/03 07:32:54;;;;;;;153.30;21.80;;;;;;;4.10;nan;-23930.78;5050368;28;20172;-67
2022/01/03 07:35:20;;;;;;;38.90;14.60;;;;;;;4.50;nan;-23942.19;5049903;28;20209;-69
2022/01/03 07:37:45;;;;;;;36.13;16.47;;;;;;;4.89;nan;-23953.13;5049731;28;20282;-67
2022/01/03 07:40:11;;;;;;;38.57;15.53;;;;;;;5.02;nan;-23956.84;5050137;28;20171;-68
2022/01/03 07:42:37;;;;;;;61.27;16.23;;;;;;;5.19;nan;-23961.53;5050298;28;20174;-68
2022/01/03 07:45:03;;;;;;;42.80;16.10;;;;;;;5.32;nan;-23965.38;5050125;28;20191;-67
2022/01/03 07:47:29;;;;;;;43.97;16.43;;;;;;;5.47;nan;-23969.34;5052148;28;20167;-68
2022/01/03 07:49:54;;;;;;;34.20;15.80;;;;;;;5.65;nan;-23974.47;5053629;28;20194;-68
2022/01/03 07:52:19;;;;;;;27.30;14.53;;;;;;;5.67;nan;-23975.19;5053365;28;20273;-68
2022/01/03 07:54:45;;;;;;;27.23;15.27;;;;;;;6.00;nan;-23984.41;5053042;28;20179;-68
2022/01/03 07:57:11;;;;;;;32.57;15.50;;;;;;;5.95;nan;-23983.00;5054009;28;20554;-68
2022/01/03 07:59:37;;;;;;;29.40;15.17;;;;;;;6.60;nan;-24001.31;5053860;28;20178;-68
2022/01/03 08:02:03;;;;;;;30.00;15.03;;;;;;;6.08;nan;-23986.69;5053510;28;20193;-68
2022/01/03 08:04:28;;;;;;;25.20;14.50;;;;;;;6.38;nan;-23995.06;5053102;28;20209;-67
2022/01/03 08:06:53;;;;;;;29.60;14.97;;;;;;;6.11;nan;-23987.53;5053671;28;20553;-68
2022/01/03 08:09:19;;;;;;;27.00;14.60;;;;;;;6.41;nan;-23995.78;5053492;28;20264;-69
2022/01/03 08:11:44;;;;;;;25.77;13.97;;;;;;;6.45;nan;-23997.06;5053611;28;20626;-69
2022/01/03 08:14:09;;;;;;;34.13;14.43;;;;;;;5.65;nan;-23974.47;5053273;28;20221;-69
2022/01/03 08:16:35;;;;;;;26.80;14.73;;;;;;;6.15;nan;-23988.53;5053417;28;20163;-68
2022/01/03 08:19:00;;;;;;;27.37;14.83;;;;;;;6.22;nan;-23990.66;5052922;28;20258;-69
2022/01/03 08:21:26;;;;;;;30.93;15.90;;;;;;;6.13;nan;-23988.13;5053182;28;20541;-68
2022/01/03 08:23:51;;;;;;;36.40;15.77;;;;;;;5.77;nan;-23978.03;5052780;28;20267;-68
2022/01/03 08:26:17;;;;;;;37.53;15.13;;;;;;;6.00;nan;-23984.28;5053193;28;20651;-69
2022/01/03 08:28:42;;;;;;;68.97;16.80;;;;;;;6.18;nan;-23989.38;5053066;28;20167;-67
2022/01/03 08:31:08;;;;;;;53.13;17.83;;;;;;;6.02;nan;-23984.97;5053037;28;20630;-67
2022/01/03 08:33:33;;;;;;;43.33;19.97;;;;;;;6.09;nan;-23986.97;5052887;28;20650;-68
2022/01/03 08:35:59;;;;;;;69.17;17.43;;;;;;;5.67;nan;-23975.19;5053115;28;20249;-67
2022/01/03 08:38:25;;;;;;;43.53;17.40;;;;;;;5.31;nan;-23965.09;5045875;28;20265;-68
2022/01/03 08:40:51;;;;;;;35.43;16.63;;;;;;;5.57;nan;-23972.19;5052475;28;20626;-68
2022/01/03 08:43:16;;;;;;;40.37;16.47;;;;;;;6.10;nan;-23987.13;5052694;28;20225;-68
2022/01/03 08:45:42;;;;;;;52.93;18.43;;;;;;;6.17;nan;-23989.25;5052787;28;20256;-67
2022/01/03 08:48:08;;;;;;;33.03;16.97;;;;;;;6.16;nan;-23988.97;5052664;28;20560;-68
2022/01/03 08:50:34;;;;;;;40.43;18.33;;;;;;;6.09;nan;-23986.84;5052516;28;20222;-69
2022/01/03 08:53:00;;;;;;;32.73;18.70;;;;;;;6.41;nan;-23995.78;5031707;28;20179;-68
2022/01/03 08:55:26;;;;;;;34.63;17.67;;;;;;;6.79;nan;-24006.44;5034532;28;20186;-69
2022/01/03 08:57:51;;;;;;;41.83;18.10;;;;;;;6.42;nan;-23996.06;5051600;28;20562;-68
2022/01/03 09:00:18;;;;;;;38.73;18.67;;;;;;;6.49;nan;-23998.06;5051529;28;20178;-69
2022/01/03 09:02:44;;;;;;;39.50;17.63;;;;;;;6.62;nan;-24001.88;5052353;28;20776;-70
2022/01/03 09:05:10;;;;;;;34.37;18.60;;;;;;;6.43;nan;-23996.34;5052089;28;20313;-68
2022/01/03 09:07:36;;;;;;;30.50;18.53;;;;;;;6.68;nan;-24003.44;5052107;28;20193;-67
2022/01/03 09:10:01;;;;;;;39.00;17.93;;;;;;;5.91;nan;-23981.72;5052406;28;20178;-69
2022/01/03 09:12:27;;;;;;;38.33;18.10;;;;;;;6.13;nan;-23988.13;5052029;28;20558;-68
2022/01/03 09:14:53;;;;;;;33.23;18.30;;;;;;;5.66;nan;-23974.91;5051497;28;20216;-68
2022/01/03 09:17:19;;;;;;;33.67;18.53;;;;;;;5.93;nan;-23982.44;5051821;28;20671;-67
2022/01/03 09:19:44;;;;;;;29.83;17.67;;;;;;;5.62;nan;-23973.63;5050807;28;20333;-66
2022/01/03 09:22:14;;;;;;;35.17;18.17;;;;;;;5.72;nan;-23976.47;5046861;28;20194;-68
2022/01/03 09:24:46;;;;;;;32.30;18.57;;;;;;;6.37;nan;-23994.78;5051722;28;20329;-68
2022/01/03 09:30:00;;;;;;;30.30;17.60;;;;;;;7.01;nan;-24012.66;5052360;28;20321;-67
2022/01/03 09:32:26;;;;;;;29.30;17.43;;;;;;;7.21;nan;-24018.19;5052111;28;20205;-69
2022/01/03 09:34:51;;;;;;;30.80;17.93;;;;;;;6.76;nan;-24005.72;5052361;28;20179;-69
2022/01/03 09:37:20;;;;;;;32.57;18.67;;;;;;;7.45;nan;-24025.00;5051816;28;20249;-68
2022/01/03 09:39:47;;;;;;;33.60;18.43;;;;;;;7.54;nan;-24027.56;5051361;28;20646;-69
2022/01/03 09:42:14;;;;;;;29.10;17.07;;;;;;;7.04;nan;-24013.50;5051542;28;20613;-69
2022/01/03 09:44:41;;;;;;;27.50;16.40;;;;;;;7.63;nan;-24029.97;5051356;28;20217;-69
2022/01/03 09:47:10;;;;;;;30.23;16.67;;;;;;;7.92;nan;-24038.31;5045168;28;20180;-68
2022/01/03 09:49:38;;;;;;;27.10;16.00;;;;;;;8.38;nan;-24051.06;5051479;28;20182;-67
2022/01/03 09:52:07;;;;;;;28.97;16.53;;;;;;;8.67;nan;-24059.28;5051650;28;20233;-68
2022/01/03 09:54:35;;;;;;;28.53;17.60;;;;;;;8.54;nan;-24055.59;5051392;28;20205;-67
2022/01/03 09:57:03;;;;;;;25.70;16.70;;;;;;;9.13;nan;-24072.16;5033371;28;20186;-67
2022/01/03 09:59:30;;;;;;;27.20;17.20;;;;;;;9.73;nan;-24088.81;5051528;28;20175;-67
2022/01/03 10:01:56;;;;;;;25.35;16.88;;;;;;;10.10;nan;-24099.28;5042549;28;20179;-68
2022/01/03 10:04:22;;;;;;;25.98;16.98;;;;;;;10.21;nan;-24102.09;5043135;28;20225;-68
2022/01/03 10:06:49;;;;;;;26.05;17.08;;;;;;;10.36;nan;-24106.47;5051141;28;20654;-69
2022/01/03 10:09:17;;;;;;;28.10;17.83;;;;;;;10.55;nan;-24111.69;5051205;28;20179;-69
2022/01/03 10:11:42;;;;;;;28.17;17.30;;;;;;;10.46;nan;-24109.16;5051328;28;20664;-68
2022/01/03 10:14:09;;;;;;;27.20;17.77;;;;;;;10.18;nan;-24101.41;5051084;28;20174;-69
2022/01/03 10:16:34;;;;;;;29.40;17.55;;;;;;;10.68;nan;-24115.38;5033250;28;20228;-72
2022/01/03 10:19:00;;;;;;;26.75;18.38;;;;;;;10.72;nan;-24116.50;5051116;28;20174;-69
2022/01/03 10:21:42;;;;;;;31.35;18.33;;;;;;;10.44;nan;-24108.75;5033150;28;20166;-69
2022/01/03 10:24:09;;;;;;;33.50;20.02;;;;;;;10.34;nan;-24105.78;5050796;28;20239;-68
2022/01/03 10:26:37;;;;;;;35.75;20.23;;;;;;;10.51;nan;-24110.72;5042041;28;20675;-68
2022/01/03 10:29:17;;;;;;;33.78;20.80;;;;;;;10.90;nan;-24121.44;5046248;28;20271;-68
2022/01/03 10:31:44;;;;;;;32.38;20.95;;;;;;;11.31;nan;-24133.00;5048331;28;20220;-70
2022/01/03 10:34:15;;;;;;;34.15;20.65;;;;;;;11.58;nan;-24140.47;5050685;28;20290;-68
2022/01/03 10:36:42;;;;;;;30.63;19.48;;;;;;;12.34;nan;-24161.59;5050517;28;20335;-68
2022/01/03 10:39:20;;;;;;;33.17;19.77;;;;;;;12.22;nan;-24158.22;5049460;28;20289;-67
2022/01/03 10:41:48;;;;;;;27.38;17.85;;;;;;;11.92;nan;-24149.91;5049658;28;20296;-68
2022/01/03 10:44:32;;;;;;;28.15;18.40;;;;;;;11.93;nan;-24150.31;5049572;28;20194;-68
2022/01/03 10:46:58;;;;;;;31.75;18.02;;;;;;;12.28;nan;-24160.03;5049518;28;20213;-68
2022/01/03 10:49:26;;;;;;;29.02;17.75;;;;;;;12.31;nan;-24160.88;5049583;28;20254;-68
2022/01/03 10:52:09;;;;;;;38.97;18.98;;;;;;;12.31;nan;-24160.88;5049603;28;20257;-68
2022/01/03 10:54:34;;;;;;;33.17;20.58;;;;;;;12.36;nan;-24162.28;5049753;28;20280;-68
2022/01/03 10:56:59;;;;;;;35.20;20.40;;;;;;;12.25;nan;-24159.19;5049781;28;20183;-68
2022/01/03 10:59:28;;;;;;;34.00;21.90;;;;;;;11.81;nan;-24146.94;5049321;28;20174;-68
2022/01/03 11:01:56;;;;;;;35.50;21.40;;;;;;;12.72;nan;-24172.13;5049577;28;20174;-69
2022/01/03 11:04:59;;;;;;;34.80;20.25;;;;;;;12.85;nan;-24175.94;5049280;28;20217;-68
2022/01/03 11:13:15;;;;;;;28.52;16.67;;;;;;;14.20;nan;-24213.28;5048102;28;20244;-61
2022/01/03 11:15:50;;;;;;;29.35;16.02;;;;;;;14.57;nan;-24223.53;5049326;28;20182;-60
2022/01/03 11:18:24;;;;;;;27.13;14.73;;;;;;;14.47;nan;-24220.72;5050235;28;20574;-62
2022/01/03 11:21:11;;;;;;;25.48;15.57;;;;;;;15.00;nan;-24235.44;5050183;28;20549;-61
2022/01/03 11:23:38;;;;;;;29.42;16.08;;;;;;;15.06;nan;-24237.13;5054279;28;20205;-61
2022/01/03 11:26:10;;;;;;;24.77;15.93;;;;;;;15.15;nan;-24239.50;5054253;28;20206;-61
2022/01/03 11:28:36;;;;;;;25.92;14.32;;;;;;;15.69;nan;-24254.50;5054145;28;20166;-61
2022/01/03 11:31:03;;;;;;;20.80;13.52;;;;;;;15.40;nan;-24246.66;5054116;28;20175;-61
2022/01/03 11:33:29;;;;;;;23.98;13.00;;;;;;;15.22;nan;-24241.47;5053904;28;20173;-62
2022/01/03 11:35:57;;;;;;;20.98;13.30;;;;;;;15.68;nan;-24254.22;5054092;28;20201;-62
2022/01/03 11:38:23;;;;;;;18.15;11.80;;;;;;;15.01;nan;-24235.88;5054010;28;20167;-62
2022/01/03 11:40:49;;;;;;;19.70;13.13;;;;;;;15.07;nan;-24237.28;5049959;28;20248;-62
2022/01/03 11:43:16;;;;;;;22.83;13.65;;;;;;;15.21;nan;-24241.34;5051871;28;20198;-62
2022/01/03 11:45:42;;;;;;;18.60;12.50;;;;;;;15.21;nan;-24241.34;5047100;28;20187;-62
2022/01/03 11:48:10;;;;;;;21.35;13.98;;;;;;;15.60;nan;-24252.13;5053491;28;20194;-62
2022/01/03 11:50:37;;;;;;;30.15;16.23;;;;;;;15.39;nan;-24246.22;5053711;28;20230;-62